Sunizona, Arizona
Current Conditions -  °F | °C
As of 1:56 AM on Wednesday 22 Oct 2014 (Local Time) from KDUG Reporting Station
Clear Clear  
Wind Chill: 54°   Ceiling: Unl
Heat Index: 54°   Visibility: 10mi
Dew Point: 48°   Wind: 7mph
Humidity: 80%   Direction: 20°NNE
Pressure: 30.03"   Gusts: NA
Location:  31.9924°N, 109.696°W
Report Text: KDUG 220856Z AUTO 02006KT 10SM CLR 12/09 A3003 RMK AO2 SLP115 T01220089 50002
Loading
Personal Weather Stations






























Interactive Weather Map
Tropical Storm Tracking
New forecast layout! Learn more

10-Day Weather Forecast

Advertisements
Track Severe Weather on mobile